sensor_id;sensor_type;location;lat;lon;timestamp;P1;durP1;ratioP1;P2;durP2;ratioP2
18505;SDS011;9382;53.242;10.438;2023-07-02T00:01:19;8.67;;;5.40;;
18505;SDS011;9382;53.242;10.438;2023-07-02T00:03:45;6.90;;;5.33;;
18505;SDS011;9382;53.242;10.438;2023-07-02T00:06:12;7.87;;;5.43;;
18505;SDS011;9382;53.242;10.438;2023-07-02T00:08:39;9.93;;;5.57;;
18505;SDS011;9382;53.242;10.438;2023-07-02T00:11:07;10.40;;;5.50;;
18505;SDS011;9382;53.242;10.438;2023-07-02T00:13:37;7.50;;;5.53;;
18505;SDS011;9382;53.242;10.438;2023-07-02T00:16:04;10.80;;;5.03;;
18505;SDS011;9382;53.242;10.438;2023-07-02T00:18:31;6.00;;;5.30;;
18505;SDS011;9382;53.242;10.438;2023-07-02T00:20:59;11.50;;;5.87;;
18505;SDS011;9382;53.242;10.438;2023-07-02T00:23:27;8.23;;;5.40;;
18505;SDS011;9382;53.242;10.438;2023-07-02T00:25:54;7.93;;;5.50;;
18505;SDS011;9382;53.242;10.438;2023-07-02T00:28:22;11.10;;;5.97;;
18505;SDS011;9382;53.242;10.438;2023-07-02T00:30:49;10.70;;;5.37;;
18505;SDS011;9382;53.242;10.438;2023-07-02T00:33:15;8.03;;;4.73;;
18505;SDS011;9382;53.242;10.438;2023-07-02T00:35:42;9.00;;;4.83;;
18505;SDS011;9382;53.242;10.438;2023-07-02T00:38:09;9.73;;;5.07;;
18505;SDS011;9382;53.242;10.438;2023-07-02T00:40:36;6.63;;;5.37;;
18505;SDS011;9382;53.242;10.438;2023-07-02T00:43:03;7.77;;;5.30;;
18505;SDS011;9382;53.242;10.438;2023-07-02T00:45:31;10.07;;;5.30;;
18505;SDS011;9382;53.242;10.438;2023-07-02T00:47:58;10.83;;;5.37;;
18505;SDS011;9382;53.242;10.438;2023-07-02T00:50:25;9.93;;;5.60;;
18505;SDS011;9382;53.242;10.438;2023-07-02T00:52:52;8.43;;;4.87;;
18505;SDS011;9382;53.242;10.438;2023-07-02T00:55:20;9.53;;;5.10;;
18505;SDS011;9382;53.242;10.438;2023-07-02T00:57:47;8.67;;;5.27;;
18505;SDS011;9382;53.242;10.438;2023-07-02T01:00:13;9.60;;;5.70;;
18505;SDS011;9382;53.242;10.438;2023-07-02T01:02:42;8.00;;;5.37;;
18505;SDS011;9382;53.242;10.438;2023-07-02T01:05:13;10.03;;;5.27;;
18505;SDS011;9382;53.242;10.438;2023-07-02T01:07:40;7.80;;;5.23;;
18505;SDS011;9382;53.242;10.438;2023-07-02T01:10:07;7.07;;;5.10;;
18505;SDS011;9382;53.242;10.438;2023-07-02T01:12:34;8.93;;;5.67;;
18505;SDS011;9382;53.242;10.438;2023-07-02T01:15:02;6.23;;;5.00;;
18505;SDS011;9382;53.242;10.438;2023-07-02T01:17:31;5.73;;;4.70;;
18505;SDS011;9382;53.242;10.438;2023-07-02T01:20:08;8.27;;;5.20;;
18505;SDS011;9382;53.242;10.438;2023-07-02T01:22:36;8.17;;;5.07;;
18505;SDS011;9382;53.242;10.438;2023-07-02T01:25:03;9.23;;;5.43;;
18505;SDS011;9382;53.242;10.438;2023-07-02T01:27:33;9.17;;;4.50;;
18505;SDS011;9382;53.242;10.438;2023-07-02T01:30:01;10.10;;;5.10;;
18505;SDS011;9382;53.242;10.438;2023-07-02T01:32:29;9.50;;;5.07;;
18505;SDS011;9382;53.242;10.438;2023-07-02T01:34:55;11.57;;;4.93;;
18505;SDS011;9382;53.242;10.438;2023-07-02T01:37:27;7.13;;;5.20;;
18505;SDS011;9382;53.242;10.438;2023-07-02T01:39:53;9.03;;;5.00;;
18505;SDS011;9382;53.242;10.438;2023-07-02T01:42:20;7.97;;;4.90;;
18505;SDS011;9382;53.242;10.438;2023-07-02T01:44:48;8.17;;;5.40;;
18505;SDS011;9382;53.242;10.438;2023-07-02T01:47:16;9.43;;;5.43;;
18505;SDS011;9382;53.242;10.438;2023-07-02T01:49:45;8.27;;;5.20;;
18505;SDS011;9382;53.242;10.438;2023-07-02T01:52:12;7.70;;;5.40;;
18505;SDS011;9382;53.242;10.438;2023-07-02T01:54:40;8.17;;;5.30;;
18505;SDS011;9382;53.242;10.438;2023-07-02T01:57:06;7.97;;;5.33;;
18505;SDS011;9382;53.242;10.438;2023-07-02T01:59:33;10.37;;;5.73;;
18505;SDS011;9382;53.242;10.438;2023-07-02T02:02:01;9.37;;;5.50;;
18505;SDS011;9382;53.242;10.438;2023-07-02T02:04:28;8.60;;;5.33;;
18505;SDS011;9382;53.242;10.438;2023-07-02T02:06:55;13.37;;;5.93;;
18505;SDS011;9382;53.242;10.438;2023-07-02T02:09:22;8.93;;;5.73;;
18505;SDS011;9382;53.242;10.438;2023-07-02T02:11:50;8.27;;;5.43;;
18505;SDS011;9382;53.242;10.438;2023-07-02T02:14:18;8.90;;;5.30;;
18505;SDS011;9382;53.242;10.438;2023-07-02T02:16:44;10.63;;;5.67;;
18505;SDS011;9382;53.242;10.438;2023-07-02T02:19:11;7.70;;;5.20;;
18505;SDS011;9382;53.242;10.438;2023-07-02T02:21:39;9.33;;;5.20;;
18505;SDS011;9382;53.242;10.438;2023-07-02T02:24:06;8.77;;;5.80;;
18505;SDS011;9382;53.242;10.438;2023-07-02T02:26:33;9.57;;;5.50;;
18505;SDS011;9382;53.242;10.438;2023-07-02T02:29:01;9.30;;;5.17;;
18505;SDS011;9382;53.242;10.438;2023-07-02T02:31:28;9.00;;;5.40;;
18505;SDS011;9382;53.242;10.438;2023-07-02T02:33:55;8.53;;;5.10;;
18505;SDS011;9382;53.242;10.438;2023-07-02T02:36:22;10.90;;;5.10;;
18505;SDS011;9382;53.242;10.438;2023-07-02T02:38:49;7.57;;;4.83;;
18505;SDS011;9382;53.242;10.438;2023-07-02T02:41:16;5.90;;;4.67;;
18505;SDS011;9382;53.242;10.438;2023-07-02T02:43:42;7.87;;;5.20;;
18505;SDS011;9382;53.242;10.438;2023-07-02T02:46:11;5.37;;;4.80;;
18505;SDS011;9382;53.242;10.438;2023-07-02T02:48:37;10.67;;;5.30;;
18505;SDS011;9382;53.242;10.438;2023-07-02T02:51:04;9.47;;;5.10;;
18505;SDS011;9382;53.242;10.438;2023-07-02T02:53:31;10.60;;;4.90;;
18505;SDS011;9382;53.242;10.438;2023-07-02T02:55:58;8.30;;;5.50;;
18505;SDS011;9382;53.242;10.438;2023-07-02T02:58:24;10.87;;;5.30;;
18505;SDS011;9382;53.242;10.438;2023-07-02T03:00:53;8.17;;;5.30;;
18505;SDS011;9382;53.242;10.438;2023-07-02T03:03:21;7.67;;;4.83;;
18505;SDS011;9382;53.242;10.438;2023-07-02T03:05:49;8.37;;;4.90;;
18505;SDS011;9382;53.242;10.438;2023-07-02T03:08:16;8.10;;;4.87;;
18505;SDS011;9382;53.242;10.438;2023-07-02T03:10:43;8.50;;;4.50;;
18505;SDS011;9382;53.242;10.438;2023-07-02T03:13:09;7.50;;;5.23;;
18505;SDS011;9382;53.242;10.438;2023-07-02T03:15:36;7.87;;;4.40;;
18505;SDS011;9382;53.242;10.438;2023-07-02T03:18:03;9.87;;;4.93;;
18505;SDS011;9382;53.242;10.438;2023-07-02T03:20:31;8.67;;;4.90;;
18505;SDS011;9382;53.242;10.438;2023-07-02T03:22:58;7.37;;;4.70;;
18505;SDS011;9382;53.242;10.438;2023-07-02T03:25:25;9.00;;;5.07;;
18505;SDS011;9382;53.242;10.438;2023-07-02T03:27:51;8.43;;;5.00;;
18505;SDS011;9382;53.242;10.438;2023-07-02T03:30:18;7.40;;;4.60;;
18505;SDS011;9382;53.242;10.438;2023-07-02T03:32:45;8.57;;;5.00;;
18505;SDS011;9382;53.242;10.438;2023-07-02T03:35:12;8.37;;;5.30;;
18505;SDS011;9382;53.242;10.438;2023-07-02T03:37:40;14.40;;;5.37;;
18505;SDS011;9382;53.242;10.438;2023-07-02T03:40:08;8.90;;;5.30;;
18505;SDS011;9382;53.242;10.438;2023-07-02T03:42:35;10.80;;;4.83;;
18505;SDS011;9382;53.242;10.438;2023-07-02T03:45:02;7.43;;;5.27;;
18505;SDS011;9382;53.242;10.438;2023-07-02T03:47:29;7.77;;;5.00;;
18505;SDS011;9382;53.242;10.438;2023-07-02T03:49:56;9.93;;;5.23;;
18505;SDS011;9382;53.242;10.438;2023-07-02T03:52:23;9.63;;;5.30;;
18505;SDS011;9382;53.242;10.438;2023-07-02T03:54:51;12.47;;;5.80;;
18505;SDS011;9382;53.242;10.438;2023-07-02T03:57:17;7.70;;;5.10;;
18505;SDS011;9382;53.242;10.438;2023-07-02T03:59:44;10.17;;;4.87;;
18505;SDS011;9382;53.242;10.438;2023-07-02T04:02:11;9.97;;;5.30;;
18505;SDS011;9382;53.242;10.438;2023-07-02T04:04:37;10.20;;;4.83;;
18505;SDS011;9382;53.242;10.438;2023-07-02T04:07:04;8.37;;;4.90;;
18505;SDS011;9382;53.242;10.438;2023-07-02T04:09:31;8.67;;;4.53;;
18505;SDS011;9382;53.242;10.438;2023-07-02T04:11:59;8.03;;;4.73;;
18505;SDS011;9382;53.242;10.438;2023-07-02T04:14:27;8.23;;;5.00;;
18505;SDS011;9382;53.242;10.438;2023-07-02T04:16:54;9.53;;;4.50;;
18505;SDS011;9382;53.242;10.438;2023-07-02T04:19:21;13.07;;;5.60;;
18505;SDS011;9382;53.242;10.438;2023-07-02T04:21:48;10.83;;;5.30;;
18505;SDS011;9382;53.242;10.438;2023-07-02T04:24:14;10.37;;;5.00;;
18505;SDS011;9382;53.242;10.438;2023-07-02T04:26:41;9.07;;;5.07;;
18505;SDS011;9382;53.242;10.438;2023-07-02T04:29:11;7.77;;;4.93;;
18505;SDS011;9382;53.242;10.438;2023-07-02T04:31:37;12.97;;;5.27;;
18505;SDS011;9382;53.242;10.438;2023-07-02T04:34:04;14.30;;;5.43;;
18505;SDS011;9382;53.242;10.438;2023-07-02T04:36:31;16.93;;;6.03;;
18505;SDS011;9382;53.242;10.438;2023-07-02T04:38:58;12.00;;;5.70;;
18505;SDS011;9382;53.242;10.438;2023-07-02T04:41:25;13.57;;;5.70;;
18505;SDS011;9382;53.242;10.438;2023-07-02T04:43:52;10.30;;;5.27;;
18505;SDS011;9382;53.242;10.438;2023-07-02T04:46:20;12.07;;;5.70;;
18505;SDS011;9382;53.242;10.438;2023-07-02T04:48:47;13.07;;;5.40;;
18505;SDS011;9382;53.242;10.438;2023-07-02T04:51:14;13.20;;;5.70;;
18505;SDS011;9382;53.242;10.438;2023-07-02T04:53:41;14.80;;;6.10;;
18505;SDS011;9382;53.242;10.438;2023-07-02T04:56:07;13.90;;;5.90;;
18505;SDS011;9382;53.242;10.438;2023-07-02T04:58:34;16.87;;;6.07;;
18505;SDS011;9382;53.242;10.438;2023-07-02T05:01:01;10.67;;;5.80;;
18505;SDS011;9382;53.242;10.438;2023-07-02T05:03:29;12.00;;;5.57;;
18505;SDS011;9382;53.242;10.438;2023-07-02T05:05:55;13.17;;;5.90;;
18505;SDS011;9382;53.242;10.438;2023-07-02T05:08:22;15.17;;;6.13;;
18505;SDS011;9382;53.242;10.438;2023-07-02T05:10:49;18.10;;;6.23;;
18505;SDS011;9382;53.242;10.438;2023-07-02T05:13:15;13.13;;;5.73;;
18505;SDS011;9382;53.242;10.438;2023-07-02T05:15:42;17.03;;;6.50;;
18505;SDS011;9382;53.242;10.438;2023-07-02T05:18:09;15.60;;;5.90;;
18505;SDS011;9382;53.242;10.438;2023-07-02T05:20:37;10.33;;;6.07;;
18505;SDS011;9382;53.242;10.438;2023-07-02T05:23:04;18.53;;;6.57;;
18505;SDS011;9382;53.242;10.438;2023-07-02T05:25:31;14.43;;;6.33;;
18505;SDS011;9382;53.242;10.438;2023-07-02T05:27:58;17.70;;;6.77;;
18505;SDS011;9382;53.242;10.438;2023-07-02T05:30:25;18.20;;;6.97;;
18505;SDS011;9382;53.242;10.438;2023-07-02T05:32:52;16.67;;;6.67;;
18505;SDS011;9382;53.242;10.438;2023-07-02T05:35:19;17.83;;;6.70;;
18505;SDS011;9382;53.242;10.438;2023-07-02T05:37:47;13.70;;;5.83;;
18505;SDS011;9382;53.242;10.438;2023-07-02T05:40:13;15.03;;;6.23;;
18505;SDS011;9382;53.242;10.438;2023-07-02T05:42:40;14.70;;;6.80;;
18505;SDS011;9382;53.242;10.438;2023-07-02T05:45:08;20.73;;;7.47;;
18505;SDS011;9382;53.242;10.438;2023-07-02T05:47:36;15.00;;;6.17;;
18505;SDS011;9382;53.242;10.438;2023-07-02T05:50:02;18.10;;;6.90;;
18505;SDS011;9382;53.242;10.438;2023-07-02T05:52:30;14.20;;;6.57;;
18505;SDS011;9382;53.242;10.438;2023-07-02T05:54:58;15.43;;;6.33;;
18505;SDS011;9382;53.242;10.438;2023-07-02T05:57:24;12.80;;;6.63;;
18505;SDS011;9382;53.242;10.438;2023-07-02T05:59:51;15.27;;;7.00;;
18505;SDS011;9382;53.242;10.438;2023-07-02T06:02:18;15.50;;;6.77;;
18505;SDS011;9382;53.242;10.438;2023-07-02T06:04:45;16.23;;;6.97;;
18505;SDS011;9382;53.242;10.438;2023-07-02T06:07:11;14.67;;;6.83;;
18505;SDS011;9382;53.242;10.438;2023-07-02T06:09:38;17.63;;;6.53;;
18505;SDS011;9382;53.242;10.438;2023-07-02T06:12:07;16.53;;;6.80;;
18505;SDS011;9382;53.242;10.438;2023-07-02T06:14:34;18.73;;;6.40;;
18505;SDS011;9382;53.242;10.438;2023-07-02T06:17:00;17.73;;;6.97;;
18505;SDS011;9382;53.242;10.438;2023-07-02T06:19:30;15.10;;;6.53;;
18505;SDS011;9382;53.242;10.438;2023-07-02T06:21:57;21.57;;;7.10;;
18505;SDS011;9382;53.242;10.438;2023-07-02T06:24:24;19.20;;;7.37;;
18505;SDS011;9382;53.242;10.438;2023-07-02T06:26:50;18.23;;;7.10;;
18505;SDS011;9382;53.242;10.438;2023-07-02T06:29:18;23.10;;;7.73;;
18505;SDS011;9382;53.242;10.438;2023-07-02T06:31:45;19.77;;;7.00;;
18505;SDS011;9382;53.242;10.438;2023-07-02T06:34:12;18.40;;;6.93;;
18505;SDS011;9382;53.242;10.438;2023-07-02T06:36:39;20.07;;;7.43;;
18505;SDS011;9382;53.242;10.438;2023-07-02T06:39:06;18.50;;;7.13;;
18505;SDS011;9382;53.242;10.438;2023-07-02T06:41:34;19.03;;;6.57;;
18505;SDS011;9382;53.242;10.438;2023-07-02T06:44:00;23.87;;;7.73;;
18505;SDS011;9382;53.242;10.438;2023-07-02T06:46:29;20.20;;;7.10;;
18505;SDS011;9382;53.242;10.438;2023-07-02T06:48:56;18.93;;;7.03;;
18505;SDS011;9382;53.242;10.438;2023-07-02T06:51:22;19.07;;;7.43;;
18505;SDS011;9382;53.242;10.438;2023-07-02T06:53:51;17.97;;;7.20;;
18505;SDS011;9382;53.242;10.438;2023-07-02T06:56:18;21.97;;;7.53;;
18505;SDS011;9382;53.242;10.438;2023-07-02T06:58:44;18.03;;;7.50;;
18505;SDS011;9382;53.242;10.438;2023-07-02T07:01:11;22.87;;;7.43;;
18505;SDS011;9382;53.242;10.438;2023-07-02T07:03:39;15.07;;;7.57;;
18505;SDS011;9382;53.242;10.438;2023-07-02T07:06:06;17.67;;;7.77;;
18505;SDS011;9382;53.242;10.438;2023-07-02T07:08:33;20.23;;;7.00;;
18505;SDS011;9382;53.242;10.438;2023-07-02T07:11:02;22.60;;;7.63;;
18505;SDS011;9382;53.242;10.438;2023-07-02T07:13:29;20.83;;;8.20;;
18505;SDS011;9382;53.242;10.438;2023-07-02T07:15:56;16.10;;;7.40;;
18505;SDS011;9382;53.242;10.438;2023-07-02T07:18:22;21.67;;;7.00;;
18505;SDS011;9382;53.242;10.438;2023-07-02T07:20:50;19.70;;;6.90;;
18505;SDS011;9382;53.242;10.438;2023-07-02T07:23:18;20.33;;;7.30;;
18505;SDS011;9382;53.242;10.438;2023-07-02T07:25:45;17.90;;;6.83;;
18505;SDS011;9382;53.242;10.438;2023-07-02T07:28:11;22.80;;;7.43;;
18505;SDS011;9382;53.242;10.438;2023-07-02T07:30:40;19.13;;;7.27;;
18505;SDS011;9382;53.242;10.438;2023-07-02T07:33:07;23.13;;;8.20;;
18505;SDS011;9382;53.242;10.438;2023-07-02T07:35:34;18.53;;;7.43;;
18505;SDS011;9382;53.242;10.438;2023-07-02T07:38:02;18.03;;;7.37;;
18505;SDS011;9382;53.242;10.438;2023-07-02T07:40:29;23.40;;;7.90;;
18505;SDS011;9382;53.242;10.438;2023-07-02T07:42:55;20.57;;;7.23;;
18505;SDS011;9382;53.242;10.438;2023-07-02T07:45:22;20.93;;;7.23;;
18505;SDS011;9382;53.242;10.438;2023-07-02T07:47:49;20.37;;;7.37;;
18505;SDS011;9382;53.242;10.438;2023-07-02T07:50:16;17.07;;;7.37;;
18505;SDS011;9382;53.242;10.438;2023-07-02T07:52:43;19.60;;;7.43;;
18505;SDS011;9382;53.242;10.438;2023-07-02T07:55:11;14.00;;;6.37;;
18505;SDS011;9382;53.242;10.438;2023-07-02T07:57:38;19.37;;;7.80;;
18505;SDS011;9382;53.242;10.438;2023-07-02T08:00:05;20.17;;;7.37;;
18505;SDS011;9382;53.242;10.438;2023-07-02T08:02:34;14.13;;;6.67;;
18505;SDS011;9382;53.242;10.438;2023-07-02T08:05:01;12.67;;;6.27;;
18505;SDS011;9382;53.242;10.438;2023-07-02T08:07:28;22.20;;;7.10;;
18505;SDS011;9382;53.242;10.438;2023-07-02T08:09:56;19.40;;;7.57;;
18505;SDS011;9382;53.242;10.438;2023-07-02T08:12:25;16.07;;;7.30;;
18505;SDS011;9382;53.242;10.438;2023-07-02T08:14:54;19.17;;;7.87;;
18505;SDS011;9382;53.242;10.438;2023-07-02T08:17:21;16.87;;;7.43;;
18505;SDS011;9382;53.242;10.438;2023-07-02T08:19:47;17.13;;;7.07;;
18505;SDS011;9382;53.242;10.438;2023-07-02T08:22:14;18.00;;;7.67;;
18505;SDS011;9382;53.242;10.438;2023-07-02T08:24:41;17.13;;;7.30;;
18505;SDS011;9382;53.242;10.438;2023-07-02T08:27:08;18.80;;;7.70;;
18505;SDS011;9382;53.242;10.438;2023-07-02T08:29:36;17.87;;;7.00;;
18505;SDS011;9382;53.242;10.438;2023-07-02T08:32:03;17.97;;;7.40;;
18505;SDS011;9382;53.242;10.438;2023-07-02T08:34:30;16.90;;;6.80;;
18505;SDS011;9382;53.242;10.438;2023-07-02T08:36:57;18.93;;;7.07;;
18505;SDS011;9382;53.242;10.438;2023-07-02T08:39:24;16.47;;;7.27;;
18505;SDS011;9382;53.242;10.438;2023-07-02T08:41:50;14.97;;;6.87;;
18505;SDS011;9382;53.242;10.438;2023-07-02T08:44:19;20.17;;;7.37;;
18505;SDS011;9382;53.242;10.438;2023-07-02T08:46:48;19.13;;;6.83;;
18505;SDS011;9382;53.242;10.438;2023-07-02T08:49:18;15.53;;;6.80;;
18505;SDS011;9382;53.242;10.438;2023-07-02T08:51:45;13.97;;;6.43;;
18505;SDS011;9382;53.242;10.438;2023-07-02T08:54:12;19.90;;;6.20;;
18505;SDS011;9382;53.242;10.438;2023-07-02T08:56:40;22.30;;;6.83;;
18505;SDS011;9382;53.242;10.438;2023-07-02T08:59:07;14.10;;;6.03;;
18505;SDS011;9382;53.242;10.438;2023-07-02T09:01:44;14.60;;;6.30;;
18505;SDS011;9382;53.242;10.438;2023-07-02T09:04:15;13.03;;;5.70;;
18505;SDS011;9382;53.242;10.438;2023-07-02T09:06:43;13.67;;;6.20;;
18505;SDS011;9382;53.242;10.438;2023-07-02T09:09:10;13.40;;;5.97;;
18505;SDS011;9382;53.242;10.438;2023-07-02T09:11:45;14.77;;;5.97;;
18505;SDS011;9382;53.242;10.438;2023-07-02T09:14:22;17.97;;;6.20;;
18505;SDS011;9382;53.242;10.438;2023-07-02T09:16:50;11.50;;;5.70;;
18505;SDS011;9382;53.242;10.438;2023-07-02T09:19:29;15.80;;;6.00;;
18505;SDS011;9382;53.242;10.438;2023-07-02T09:21:57;15.20;;;6.27;;
18505;SDS011;9382;53.242;10.438;2023-07-02T09:24:25;14.70;;;5.93;;
18505;SDS011;9382;53.242;10.438;2023-07-02T09:26:54;11.07;;;5.93;;
18505;SDS011;9382;53.242;10.438;2023-07-02T09:29:23;17.40;;;6.17;;
18505;SDS011;9382;53.242;10.438;2023-07-02T09:31:52;16.13;;;6.13;;
18505;SDS011;9382;53.242;10.438;2023-07-02T09:34:19;18.20;;;6.40;;
18505;SDS011;9382;53.242;10.438;2023-07-02T09:36:47;16.97;;;5.90;;
18505;SDS011;9382;53.242;10.438;2023-07-02T09:39:17;17.50;;;6.03;;
18505;SDS011;9382;53.242;10.438;2023-07-02T09:41:46;13.07;;;5.80;;
18505;SDS011;9382;53.242;10.438;2023-07-02T09:44:16;12.47;;;5.43;;
18505;SDS011;9382;53.242;10.438;2023-07-02T09:46:45;13.57;;;6.00;;
18505;SDS011;9382;53.242;10.438;2023-07-02T09:49:19;14.53;;;6.50;;
18505;SDS011;9382;53.242;10.438;2023-07-02T09:51:49;14.67;;;5.90;;
18505;SDS011;9382;53.242;10.438;2023-07-02T09:54:16;12.07;;;5.70;;
18505;SDS011;9382;53.242;10.438;2023-07-02T09:56:45;14.97;;;5.73;;
18505;SDS011;9382;53.242;10.438;2023-07-02T09:59:12;11.20;;;5.47;;
18505;SDS011;9382;53.242;10.438;2023-07-02T10:01:39;15.13;;;5.83;;
18505;SDS011;9382;53.242;10.438;2023-07-02T10:04:13;13.07;;;5.47;;
18505;SDS011;9382;53.242;10.438;2023-07-02T10:06:47;16.23;;;5.63;;
18505;SDS011;9382;53.242;10.438;2023-07-02T10:09:16;12.40;;;5.70;;
18505;SDS011;9382;53.242;10.438;2023-07-02T10:11:43;13.10;;;5.60;;
18505;SDS011;9382;53.242;10.438;2023-07-02T10:14:10;11.37;;;5.10;;
18505;SDS011;9382;53.242;10.438;2023-07-02T10:16:48;10.40;;;5.03;;
18505;SDS011;9382;53.242;10.438;2023-07-02T10:19:16;11.60;;;5.20;;
18505;SDS011;9382;53.242;10.438;2023-07-02T10:21:43;10.20;;;4.83;;
18505;SDS011;9382;53.242;10.438;2023-07-02T10:24:12;13.70;;;4.60;;
18505;SDS011;9382;53.242;10.438;2023-07-02T10:26:52;14.50;;;4.67;;
18505;SDS011;9382;53.242;10.438;2023-07-02T10:29:21;14.80;;;4.90;;
18505;SDS011;9382;53.242;10.438;2023-07-02T10:31:49;9.47;;;4.43;;
18505;SDS011;9382;53.242;10.438;2023-07-02T10:34:16;13.10;;;4.80;;
18505;SDS011;9382;53.242;10.438;2023-07-02T10:36:53;11.73;;;5.20;;
18505;SDS011;9382;53.242;10.438;2023-07-02T10:39:20;10.87;;;4.90;;
18505;SDS011;9382;53.242;10.438;2023-07-02T10:41:47;12.40;;;4.17;;
18505;SDS011;9382;53.242;10.438;2023-07-02T10:44:15;9.40;;;4.20;;
18505;SDS011;9382;53.242;10.438;2023-07-02T10:46:45;11.60;;;4.63;;
18505;SDS011;9382;53.242;10.438;2023-07-02T10:49:12;9.43;;;4.10;;
18505;SDS011;9382;53.242;10.438;2023-07-02T10:51:40;12.23;;;4.40;;
18505;SDS011;9382;53.242;10.438;2023-07-02T10:54:07;10.07;;;4.00;;
18505;SDS011;9382;53.242;10.438;2023-07-02T10:56:34;8.20;;;4.30;;
18505;SDS011;9382;53.242;10.438;2023-07-02T10:59:01;7.30;;;4.30;;
18505;SDS011;9382;53.242;10.438;2023-07-02T11:01:30;10.10;;;4.40;;
18505;SDS011;9382;53.242;10.438;2023-07-02T11:03:58;10.50;;;4.43;;
18505;SDS011;9382;53.242;10.438;2023-07-02T11:06:26;10.10;;;4.73;;
18505;SDS011;9382;53.242;10.438;2023-07-02T11:08:53;11.33;;;4.83;;
18505;SDS011;9382;53.242;10.438;2023-07-02T11:11:21;8.97;;;5.07;;
18505;SDS011;9382;53.242;10.438;2023-07-02T11:13:49;11.30;;;5.50;;
18505;SDS011;9382;53.242;10.438;2023-07-02T11:16:18;14.03;;;5.43;;
18505;SDS011;9382;53.242;10.438;2023-07-02T11:18:49;15.97;;;5.80;;
18505;SDS011;9382;53.242;10.438;2023-07-02T11:21:16;17.03;;;5.83;;
18505;SDS011;9382;53.242;10.438;2023-07-02T11:23:42;16.23;;;5.97;;
18505;SDS011;9382;53.242;10.438;2023-07-02T11:26:09;14.13;;;5.27;;
18505;SDS011;9382;53.242;10.438;2023-07-02T11:28:36;8.93;;;4.57;;
18505;SDS011;9382;53.242;10.438;2023-07-02T11:31:13;9.90;;;4.20;;
18505;SDS011;9382;53.242;10.438;2023-07-02T11:33:40;8.40;;;4.23;;
18505;SDS011;9382;53.242;10.438;2023-07-02T11:36:18;11.63;;;4.57;;
18505;SDS011;9382;53.242;10.438;2023-07-02T11:38:46;8.67;;;4.60;;
18505;SDS011;9382;53.242;10.438;2023-07-02T11:41:13;7.60;;;4.40;;
18505;SDS011;9382;53.242;10.438;2023-07-02T11:43:40;12.40;;;4.83;;
18505;SDS011;9382;53.242;10.438;2023-07-02T11:46:07;14.40;;;5.30;;
18505;SDS011;9382;53.242;10.438;2023-07-02T11:48:33;10.97;;;5.50;;
18505;SDS011;9382;53.242;10.438;2023-07-02T11:51:00;15.83;;;5.40;;
18505;SDS011;9382;53.242;10.438;2023-07-02T11:53:28;12.73;;;4.90;;
18505;SDS011;9382;53.242;10.438;2023-07-02T11:55:55;11.90;;;4.87;;
18505;SDS011;9382;53.242;10.438;2023-07-02T11:58:21;13.27;;;5.03;;
18505;SDS011;9382;53.242;10.438;2023-07-02T12:00:48;12.33;;;4.43;;
18505;SDS011;9382;53.242;10.438;2023-07-02T12:03:15;7.90;;;4.03;;
18505;SDS011;9382;53.242;10.438;2023-07-02T12:05:42;10.63;;;4.30;;
18505;SDS011;9382;53.242;10.438;2023-07-02T12:08:08;6.90;;;3.80;;
18505;SDS011;9382;53.242;10.438;2023-07-02T12:10:36;5.60;;;3.33;;
18505;SDS011;9382;53.242;10.438;2023-07-02T12:13:03;8.13;;;3.57;;
18505;SDS011;9382;53.242;10.438;2023-07-02T12:15:30;12.10;;;3.80;;
18505;SDS011;9382;53.242;10.438;2023-07-02T12:17:56;6.13;;;3.47;;
18505;SDS011;9382;53.242;10.438;2023-07-02T12:20:23;10.47;;;3.87;;
18505;SDS011;9382;53.242;10.438;2023-07-02T12:22:50;8.90;;;3.60;;
18505;SDS011;9382;53.242;10.438;2023-07-02T12:25:16;6.37;;;4.00;;
18505;SDS011;9382;53.242;10.438;2023-07-02T12:27:45;12.73;;;4.43;;
18505;SDS011;9382;53.242;10.438;2023-07-02T12:30:11;7.87;;;3.93;;
18505;SDS011;9382;53.242;10.438;2023-07-02T12:32:42;8.07;;;4.07;;
18505;SDS011;9382;53.242;10.438;2023-07-02T12:35:09;10.10;;;4.30;;
18505;SDS011;9382;53.242;10.438;2023-07-02T12:37:42;12.80;;;4.30;;
18505;SDS011;9382;53.242;10.438;2023-07-02T12:40:09;10.23;;;4.00;;
18505;SDS011;9382;53.242;10.438;2023-07-02T12:42:36;10.43;;;4.10;;
18505;SDS011;9382;53.242;10.438;2023-07-02T12:45:05;9.10;;;4.40;;
18505;SDS011;9382;53.242;10.438;2023-07-02T12:47:33;7.70;;;3.40;;
18505;SDS011;9382;53.242;10.438;2023-07-02T12:50:00;9.20;;;3.37;;
18505;SDS011;9382;53.242;10.438;2023-07-02T12:52:27;8.90;;;3.63;;
18505;SDS011;9382;53.242;10.438;2023-07-02T12:54:54;9.67;;;3.47;;
18505;SDS011;9382;53.242;10.438;2023-07-02T12:57:21;6.17;;;3.20;;
18505;SDS011;9382;53.242;10.438;2023-07-02T12:59:48;7.50;;;3.43;;
18505;SDS011;9382;53.242;10.438;2023-07-02T13:02:16;8.13;;;3.40;;
18505;SDS011;9382;53.242;10.438;2023-07-02T13:04:43;4.13;;;3.00;;
18505;SDS011;9382;53.242;10.438;2023-07-02T13:07:09;6.90;;;2.80;;
18505;SDS011;9382;53.242;10.438;2023-07-02T13:09:36;7.90;;;2.93;;
18505;SDS011;9382;53.242;10.438;2023-07-02T13:12:04;6.60;;;3.00;;
18505;SDS011;9382;53.242;10.438;2023-07-02T13:14:31;7.87;;;3.27;;
18505;SDS011;9382;53.242;10.438;2023-07-02T13:16:58;9.87;;;3.03;;
18505;SDS011;9382;53.242;10.438;2023-07-02T13:19:26;8.87;;;3.73;;
18505;SDS011;9382;53.242;10.438;2023-07-02T13:21:53;6.60;;;3.37;;
18505;SDS011;9382;53.242;10.438;2023-07-02T13:24:20;14.00;;;3.50;;
18505;SDS011;9382;53.242;10.438;2023-07-02T13:26:46;11.30;;;3.70;;
18505;SDS011;9382;53.242;10.438;2023-07-02T13:29:13;8.10;;;3.70;;
18505;SDS011;9382;53.242;10.438;2023-07-02T13:31:41;8.20;;;3.70;;
18505;SDS011;9382;53.242;10.438;2023-07-02T13:34:08;8.97;;;4.00;;
18505;SDS011;9382;53.242;10.438;2023-07-02T13:36:36;8.43;;;3.70;;
18505;SDS011;9382;53.242;10.438;2023-07-02T13:39:03;8.00;;;3.20;;
18505;SDS011;9382;53.242;10.438;2023-07-02T13:41:29;6.90;;;3.30;;
18505;SDS011;9382;53.242;10.438;2023-07-02T13:43:56;11.17;;;3.80;;
18505;SDS011;9382;53.242;10.438;2023-07-02T13:46:23;7.50;;;3.03;;
18505;SDS011;9382;53.242;10.438;2023-07-02T13:48:50;8.67;;;3.00;;
18505;SDS011;9382;53.242;10.438;2023-07-02T13:51:16;6.67;;;3.20;;
18505;SDS011;9382;53.242;10.438;2023-07-02T13:53:45;8.23;;;3.00;;
18505;SDS011;9382;53.242;10.438;2023-07-02T13:56:11;8.53;;;3.10;;
18505;SDS011;9382;53.242;10.438;2023-07-02T14:01:28;7.23;;;3.40;;
18505;SDS011;9382;53.242;10.438;2023-07-02T14:03:55;6.83;;;2.87;;
18505;SDS011;9382;53.242;10.438;2023-07-02T14:06:22;6.13;;;3.00;;
18505;SDS011;9382;53.242;10.438;2023-07-02T14:08:49;6.37;;;2.93;;
18505;SDS011;9382;53.242;10.438;2023-07-02T14:11:15;10.93;;;3.30;;
18505;SDS011;9382;53.242;10.438;2023-07-02T14:13:42;10.47;;;3.47;;
18505;SDS011;9382;53.242;10.438;2023-07-02T14:16:10;10.77;;;3.23;;
18505;SDS011;9382;53.242;10.438;2023-07-02T14:18:37;7.60;;;3.23;;
18505;SDS011;9382;53.242;10.438;2023-07-02T14:21:04;5.50;;;3.00;;
18505;SDS011;9382;53.242;10.438;2023-07-02T14:23:31;9.67;;;3.20;;
18505;SDS011;9382;53.242;10.438;2023-07-02T14:25:58;7.27;;;3.03;;
18505;SDS011;9382;53.242;10.438;2023-07-02T14:28:24;7.07;;;3.00;;
18505;SDS011;9382;53.242;10.438;2023-07-02T14:30:57;8.97;;;3.00;;
18505;SDS011;9382;53.242;10.438;2023-07-02T14:33:27;6.20;;;3.00;;
18505;SDS011;9382;53.242;10.438;2023-07-02T14:35:55;9.83;;;3.67;;
18505;SDS011;9382;53.242;10.438;2023-07-02T14:38:22;8.17;;;3.23;;
18505;SDS011;9382;53.242;10.438;2023-07-02T14:40:49;8.40;;;3.83;;
18505;SDS011;9382;53.242;10.438;2023-07-02T14:43:16;7.70;;;2.97;;
18505;SDS011;9382;53.242;10.438;2023-07-02T14:45:44;8.43;;;3.40;;